createdAt,value
2023-05-05T00:02:02.733Z,9.23
2023-05-05T00:08:41.436Z,7.45
2023-05-05T00:13:52.617Z,6.03
2023-05-05T00:16:19.442Z,7.60
2023-05-05T00:18:46.382Z,7.10
2023-05-05T00:23:57.183Z,7.63
2023-05-05T00:33:04.547Z,6.82
2023-05-05T00:35:31.507Z,6.55
2023-05-05T00:37:58.519Z,11.35
2023-05-05T00:40:34.624Z,7.40
2023-05-05T00:43:01.458Z,9.38
2023-05-05T00:49:14.132Z,7.30
2023-05-05T00:51:41.062Z,9.75
2023-05-05T00:54:07.988Z,7.05
2023-05-05T01:07:07.462Z,7.07
2023-05-05T01:16:25.235Z,6.93
2023-05-05T01:19:07.078Z,5.75
2023-05-05T01:21:56.019Z,7.32
2023-05-05T01:24:47.728Z,6.63
2023-05-05T01:27:45.338Z,7.88
2023-05-05T01:30:24.098Z,6.60
2023-05-05T01:32:55.363Z,6.50
2023-05-05T01:35:57.530Z,5.68
2023-05-05T01:38:45.404Z,6.55
2023-05-05T01:41:19.463Z,6.20
2023-05-05T01:45:11.722Z,7.03
2023-05-05T01:46:41.873Z,5.03
2023-05-05T01:49:12.864Z,8.10
2023-05-05T01:51:41.548Z,6.18
2023-05-05T01:54:09.348Z,6.97
2023-05-05T01:56:39.908Z,6.78
2023-05-05T02:00:07.407Z,7.10
2023-05-05T02:03:04.005Z,6.18
2023-05-05T02:05:33.226Z,6.68
2023-05-05T02:13:46.934Z,6.22
2023-05-05T02:16:14.256Z,5.20
2023-05-05T02:18:43.176Z,6.43
2023-05-05T02:21:53.844Z,6.03
2023-05-05T02:24:20.660Z,6.05
2023-05-05T02:26:50.221Z,7.25
2023-05-05T02:29:42.035Z,6.53
2023-05-05T02:32:53.893Z,6.25
2023-05-05T02:35:27.305Z,7.45
2023-05-05T02:43:22.847Z,6.45
2023-05-05T02:45:49.752Z,7.65
2023-05-05T02:48:16.689Z,8.63
2023-05-05T02:51:20.879Z,6.22
2023-05-05T02:53:55.837Z,6.63
2023-05-05T02:56:49.007Z,7.13
2023-05-05T02:59:50.937Z,7.03
2023-05-05T03:02:24.585Z,8.25
2023-05-05T03:05:02.587Z,6.68
2023-05-05T03:08:16.623Z,7.05
2023-05-05T03:10:51.682Z,9.40
2023-05-05T03:19:33.434Z,6.38
2023-05-05T03:22:18.656Z,6.40
2023-05-05T03:24:50.506Z,8.73
2023-05-05T03:27:26.502Z,6.47
2023-05-05T03:29:53.452Z,7.20
2023-05-05T03:32:20.538Z,5.78
2023-05-05T03:34:47.400Z,6.75
2023-05-05T03:37:14.348Z,7.25
2023-05-05T03:40:14.858Z,8.63
2023-05-05T03:42:51.068Z,6.63
2023-05-05T03:45:18.011Z,7.57
2023-05-05T03:48:02.099Z,6.75
2023-05-05T03:51:16.573Z,8.40
2023-05-05T03:56:11.956Z,7.38
2023-05-05T03:58:44.106Z,7.68
2023-05-05T04:01:10.918Z,7.95
2023-05-05T04:04:01.932Z,8.15
2023-05-05T04:06:28.817Z,7.35
2023-05-05T04:09:28.392Z,6.22
2023-05-05T04:11:56.140Z,6.03
2023-05-05T04:14:40.911Z,7.32
2023-05-05T04:17:07.687Z,8.02
2023-05-05T04:19:34.853Z,6.95
2023-05-05T04:22:23.728Z,7.90
2023-05-05T04:28:21.969Z,7.60
2023-05-05T04:34:14.904Z,7.03
2023-05-05T04:36:41.692Z,7.95
2023-05-05T04:42:02.552Z,7.43
2023-05-05T04:44:35.478Z,6.47
2023-05-05T04:47:04.884Z,9.43
2023-05-05T04:49:32.109Z,7.90
2023-05-05T04:55:19.102Z,9.32
2023-05-05T04:57:45.950Z,9.10
2023-05-05T05:00:13.346Z,8.57
2023-05-05T05:05:55.515Z,9.60
2023-05-05T05:17:33.695Z,9.70
2023-05-05T05:23:54.993Z,8.75
2023-05-05T05:26:22.409Z,9.00
2023-05-05T05:31:53.504Z,8.98
2023-05-05T05:34:21.683Z,9.50
2023-05-05T05:36:51.787Z,8.45
2023-05-05T05:39:21.965Z,9.00
2023-05-05T05:45:23.936Z,9.05
2023-05-05T05:50:32.486Z,8.63
2023-05-05T05:53:36.490Z,8.57
2023-05-05T05:58:53.074Z,8.57
2023-05-05T06:01:25.349Z,8.50
2023-05-05T06:06:22.544Z,7.20
2023-05-05T06:17:46.994Z,8.80
2023-05-05T06:23:59.155Z,8.55
2023-05-05T06:26:26.103Z,8.55
2023-05-05T06:28:52.850Z,8.45
2023-05-05T06:37:36.174Z,8.98
2023-05-05T06:40:02.998Z,10.43
2023-05-05T06:45:36.245Z,8.98
2023-05-05T06:53:55.387Z,8.93
2023-05-05T07:00:23.688Z,8.90
2023-05-05T07:08:23.291Z,8.02
2023-05-05T07:11:03.008Z,11.05
2023-05-05T07:13:36.140Z,14.52
2023-05-05T07:16:03.533Z,11.50
2023-05-05T07:18:30.502Z,16.20
2023-05-05T07:20:57.579Z,15.70
2023-05-05T07:27:27.621Z,10.90
2023-05-05T07:32:55.381Z,10.15
2023-05-05T07:44:31.645Z,11.70
2023-05-05T07:50:11.131Z,13.45
2023-05-05T07:52:48.441Z,12.90
2023-05-05T08:07:54.449Z,10.00
2023-05-05T08:10:53.291Z,11.45
2023-05-05T08:13:20.639Z,10.73
2023-05-05T08:15:47.829Z,11.05
2023-05-05T08:21:02.922Z,11.75
2023-05-05T08:27:07.456Z,10.40
2023-05-05T08:35:36.012Z,12.27
2023-05-05T08:38:02.809Z,11.50
2023-05-05T08:40:38.906Z,10.23
2023-05-05T08:43:27.716Z,11.15
2023-05-05T08:52:44.840Z,10.60
2023-05-05T08:55:24.282Z,8.63
2023-05-05T08:57:53.042Z,8.60
2023-05-05T09:00:21.073Z,8.52
2023-05-05T09:02:48.475Z,8.82
2023-05-05T09:08:46.242Z,8.32
2023-05-05T09:14:31.496Z,8.18
2023-05-05T09:23:35.223Z,8.15
2023-05-05T09:26:37.950Z,7.13
2023-05-05T09:29:07.913Z,8.02
2023-05-05T09:31:45.126Z,7.30
2023-05-05T09:40:20.544Z,7.32
2023-05-05T09:42:50.104Z,8.05
2023-05-05T09:45:19.938Z,7.13
2023-05-05T09:53:52.944Z,7.05
2023-05-05T09:56:20.895Z,5.78
2023-05-05T10:01:27.393Z,5.10
2023-05-05T10:03:57.665Z,5.18
2023-05-05T10:07:05.750Z,6.00
2023-05-05T10:13:03.109Z,7.68
2023-05-05T10:18:47.163Z,6.90
2023-05-05T10:21:18.150Z,6.55
2023-05-05T10:24:32.308Z,6.18
2023-05-05T10:30:17.431Z,7.22
2023-05-05T10:33:38.826Z,6.75
2023-05-05T10:36:13.228Z,7.78
2023-05-05T10:38:41.587Z,5.57
2023-05-05T10:59:26.525Z,6.63
2023-05-05T11:01:55.699Z,6.05
2023-05-05T11:04:38.597Z,5.90
2023-05-05T11:07:09.803Z,5.70
2023-05-05T11:09:55.428Z,6.53
2023-05-05T11:12:22.377Z,5.95
2023-05-05T11:15:24.262Z,5.75
2023-05-05T11:17:51.139Z,7.53
2023-05-05T11:20:18.657Z,5.68
2023-05-05T11:23:07.636Z,4.68
2023-05-05T11:25:37.565Z,5.53
2023-05-05T11:28:54.575Z,6.68
2023-05-05T11:31:21.436Z,6.53
2023-05-05T11:33:48.672Z,5.20
2023-05-05T11:36:19.677Z,6.72
2023-05-05T11:39:20.658Z,5.30
2023-05-05T11:42:23.664Z,5.00
2023-05-05T11:44:51.352Z,5.50
2023-05-05T11:47:18.389Z,7.50
2023-05-05T11:49:45.173Z,5.35
2023-05-05T11:52:23.251Z,5.78
2023-05-05T11:54:50.602Z,6.80
2023-05-05T11:57:21.167Z,6.50
2023-05-05T12:00:13.678Z,5.82
2023-05-05T12:02:40.808Z,5.32
2023-05-05T12:05:08.169Z,5.28
2023-05-05T12:07:39.502Z,6.18
2023-05-05T12:10:12.562Z,8.77
2023-05-05T12:15:45.478Z,6.35
2023-05-05T12:18:19.698Z,5.47
2023-05-05T12:20:47.134Z,7.32
2023-05-05T12:27:08.991Z,6.28
2023-05-05T12:32:25.012Z,5.30
2023-05-05T12:34:54.463Z,7.78
2023-05-05T12:39:49.713Z,7.25
2023-05-05T12:42:17.395Z,4.50
2023-05-05T12:45:25.934Z,5.82
2023-05-05T12:47:52.700Z,6.28
2023-05-05T12:50:32.446Z,5.95
2023-05-05T12:59:37.840Z,4.85
2023-05-05T13:02:07.279Z,4.88
2023-05-05T13:04:34.518Z,5.15
2023-05-05T13:07:26.500Z,5.93
2023-05-05T13:12:49.041Z,4.53
2023-05-05T13:18:03.277Z,8.05
2023-05-05T13:20:29.997Z,6.70
2023-05-05T13:22:57.314Z,5.82
2023-05-05T13:25:25.142Z,5.30
2023-05-05T13:30:49.370Z,4.80
2023-05-05T13:36:59.418Z,6.07
2023-05-05T13:39:26.216Z,5.60
2023-05-05T13:41:53.580Z,4.30
2023-05-05T13:44:23.405Z,4.97
2023-05-05T13:46:50.307Z,6.00
2023-05-05T13:49:32.062Z,6.25
2023-05-05T13:52:23.385Z,5.50
2023-05-05T13:54:50.217Z,6.50
2023-05-05T13:57:31.282Z,5.30
2023-05-05T13:59:58.166Z,6.78
2023-05-05T14:02:25.045Z,4.22
2023-05-05T14:04:51.815Z,4.70
2023-05-05T14:07:18.514Z,5.22
2023-05-05T14:09:45.211Z,4.55
2023-05-05T14:12:12.224Z,3.55
2023-05-05T14:14:39.220Z,4.50
2023-05-05T14:17:06.205Z,5.50
2023-05-05T14:19:33.441Z,4.28
2023-05-05T14:22:00.197Z,5.10
2023-05-05T14:27:07.573Z,6.25
2023-05-05T14:29:34.247Z,4.85
2023-05-05T14:35:03.478Z,5.43
2023-05-05T14:37:33.666Z,4.10
2023-05-05T14:40:06.746Z,7.88
2023-05-05T14:42:33.440Z,4.88
2023-05-05T14:48:54.825Z,4.90
2023-05-05T14:51:21.513Z,4.05
2023-05-05T15:19:25.396Z,4.85
2023-05-05T15:21:55.420Z,4.78
2023-05-05T15:24:55.915Z,3.47
2023-05-05T15:27:44.447Z,3.47
2023-05-05T15:30:12.809Z,5.40
2023-05-05T15:33:16.214Z,8.30
2023-05-05T15:35:43.008Z,3.45
2023-05-05T15:38:10.145Z,4.35
2023-05-05T15:40:36.877Z,3.83
2023-05-05T15:43:03.547Z,4.10
2023-05-05T15:49:58.149Z,4.13
2023-05-05T15:52:24.874Z,4.07
2023-05-05T15:54:51.837Z,4.15
2023-05-05T15:57:21.545Z,5.07
2023-05-05T16:00:32.899Z,5.45
2023-05-05T16:03:21.061Z,4.85
2023-05-05T16:05:47.942Z,4.10
2023-05-05T16:08:23.495Z,3.20
2023-05-05T16:11:11.525Z,4.40
2023-05-05T16:13:39.132Z,4.32
2023-05-05T16:16:06.842Z,3.53
2023-05-05T16:18:33.685Z,3.90
2023-05-05T16:21:00.913Z,3.40
2023-05-05T16:23:47.149Z,3.90
2023-05-05T16:26:14.093Z,3.17
2023-05-05T16:28:43.846Z,4.05
2023-05-05T16:31:10.877Z,3.80
2023-05-05T16:33:43.194Z,4.85
2023-05-05T16:36:14.181Z,5.72
2023-05-05T16:38:41.435Z,8.85
2023-05-05T16:41:08.236Z,6.47
2023-05-05T16:43:37.159Z,6.40
2023-05-05T16:52:26.094Z,4.35
2023-05-05T16:54:55.601Z,3.58
2023-05-05T16:58:23.629Z,8.50
2023-05-05T17:00:54.532Z,4.43
2023-05-05T17:03:22.365Z,6.10
2023-05-05T17:09:28.954Z,6.15
2023-05-05T17:11:55.984Z,7.65
2023-05-05T17:14:24.636Z,5.90
2023-05-05T17:16:51.519Z,7.78
2023-05-05T17:20:07.630Z,6.60
2023-05-05T17:22:34.378Z,5.07
2023-05-05T17:28:07.470Z,10.73
2023-05-05T17:30:47.757Z,7.22
2023-05-05T17:33:26.238Z,7.68
2023-05-05T17:35:53.030Z,7.43
2023-05-05T17:39:10.555Z,6.97
2023-05-05T17:42:30.446Z,10.23
2023-05-05T17:44:58.877Z,10.10
2023-05-05T17:50:01.258Z,8.63
2023-05-05T17:53:28.493Z,6.25
2023-05-05T18:00:07.946Z,8.50
2023-05-05T18:05:56.617Z,10.25
2023-05-05T18:08:23.361Z,5.88
2023-05-05T18:10:50.194Z,5.55
2023-05-05T18:13:17.184Z,5.05
2023-05-05T18:15:44.125Z,4.75
2023-05-05T18:28:57.782Z,6.25
2023-05-05T18:31:25.072Z,4.10
2023-05-05T18:33:51.875Z,5.70
2023-05-05T18:40:16.750Z,5.78
2023-05-05T18:43:05.218Z,4.13
2023-05-05T18:45:32.038Z,6.22
2023-05-05T18:47:58.970Z,3.92
2023-05-05T18:50:26.010Z,4.25
2023-05-05T18:52:53.139Z,5.40
2023-05-05T18:55:19.958Z,6.90
2023-05-05T18:57:47.238Z,5.90
2023-05-05T19:00:14.364Z,5.00
2023-05-05T19:02:44.117Z,11.68
2023-05-05T19:05:11.533Z,7.03
2023-05-05T19:07:51.053Z,7.32
2023-05-05T19:10:20.987Z,6.80
2023-05-05T19:12:50.800Z,5.57
2023-05-05T19:18:32.723Z,6.45
2023-05-05T19:20:59.628Z,7.75
2023-05-05T19:26:48.171Z,5.18
2023-05-05T19:33:08.009Z,5.57
2023-05-05T19:35:34.764Z,4.45
2023-05-05T19:38:04.238Z,6.32
2023-05-05T19:52:54.378Z,4.55
2023-05-05T19:59:23.655Z,6.75
2023-05-05T20:01:53.760Z,7.07
2023-05-05T20:04:21.212Z,5.97
2023-05-05T20:06:48.613Z,5.25
2023-05-05T20:09:18.959Z,4.72
2023-05-05T20:11:45.800Z,5.22
2023-05-05T20:25:16.718Z,8.43
2023-05-05T20:27:47.297Z,5.07
2023-05-05T20:30:14.671Z,4.47
2023-05-05T20:32:41.510Z,7.38
2023-05-05T20:35:09.575Z,5.28
2023-05-05T20:43:50.608Z,5.95
2023-05-05T20:46:39.289Z,6.88
2023-05-05T20:49:06.363Z,4.90
2023-05-05T20:51:34.993Z,4.50
2023-05-05T20:54:05.740Z,4.50
2023-05-05T20:57:03.782Z,5.18
2023-05-05T20:59:30.726Z,4.30
2023-05-05T21:02:01.024Z,4.80
2023-05-05T21:04:49.796Z,6.22
2023-05-05T21:07:22.805Z,3.53
2023-05-05T21:09:49.542Z,5.10
2023-05-05T21:12:16.453Z,5.63
2023-05-05T21:14:45.244Z,5.78
2023-05-05T21:17:21.005Z,8.25
2023-05-05T21:19:50.516Z,6.75
2023-05-05T21:22:17.238Z,6.88
2023-05-05T21:25:53.507Z,7.25
2023-05-05T21:28:49.356Z,6.65
2023-05-05T21:34:07.171Z,9.95
2023-05-05T21:40:34.631Z,5.43
2023-05-05T21:50:03.747Z,6.18
2023-05-05T21:52:36.744Z,6.60
2023-05-05T21:55:03.906Z,7.20
2023-05-05T21:57:30.676Z,6.72
2023-05-05T22:02:41.368Z,7.65
2023-05-05T22:05:08.480Z,7.53
2023-05-05T22:07:44.804Z,8.43
2023-05-05T22:16:53.225Z,6.18
2023-05-05T22:19:43.354Z,7.38
2023-05-05T22:22:10.325Z,14.68
2023-05-05T22:25:42.056Z,6.18
2023-05-05T22:28:42.791Z,7.05
2023-05-05T22:31:09.608Z,7.78
2023-05-05T22:33:42.546Z,7.43
2023-05-05T22:36:10.304Z,6.30
2023-05-05T22:41:21.329Z,5.65
2023-05-05T22:43:50.890Z,5.20
2023-05-05T22:46:17.794Z,4.85
2023-05-05T22:48:56.971Z,11.38
2023-05-05T22:51:23.784Z,5.45
2023-05-05T22:56:29.823Z,6.20
2023-05-05T22:59:05.878Z,6.32
2023-05-05T23:01:35.963Z,6.07
2023-05-05T23:04:05.613Z,7.05
2023-05-05T23:06:44.973Z,6.40
2023-05-05T23:09:27.031Z,5.88
2023-05-05T23:11:56.929Z,8.20
2023-05-05T23:14:23.765Z,6.25
2023-05-05T23:24:04.141Z,7.57
2023-05-05T23:26:31.050Z,5.18
2023-05-05T23:29:26.221Z,7.15
2023-05-05T23:39:14.834Z,7.43
2023-05-05T23:42:28.220Z,5.25
2023-05-05T23:44:55.035Z,9.25
2023-05-05T23:50:19.177Z,5.82
2023-05-05T23:54:12.378Z,6.22
2023-05-05T23:57:04.275Z,7.65
